createdAt,value
2022-08-09T00:01:39.934Z,17.79
2022-08-09T00:05:03.280Z,18.04
2022-08-09T00:08:32.072Z,17.92
2022-08-09T00:12:01.549Z,18.11
2022-08-09T00:14:56.958Z,18.08
2022-08-09T00:18:04.660Z,17.50
2022-08-09T00:21:11.188Z,17.80
2022-08-09T00:24:14.996Z,17.91
2022-08-09T00:27:16.510Z,17.64
2022-08-09T00:30:25.317Z,17.94
2022-08-09T00:33:32.647Z,17.88
2022-08-09T00:36:49.444Z,17.55
2022-08-09T00:40:12.532Z,17.75
2022-08-09T00:44:11.018Z,17.24
2022-08-09T00:46:57.221Z,17.44
2022-08-09T00:49:56.482Z,17.78
2022-08-09T00:52:58.494Z,17.80
2022-08-09T00:56:03.886Z,17.44
2022-08-09T00:59:07.335Z,17.21
2022-08-09T01:02:09.469Z,17.52
2022-08-09T01:05:22.811Z,17.55
2022-08-09T01:09:17.051Z,17.05
2022-08-09T01:12:37.314Z,17.68
2022-08-09T01:15:52.503Z,17.86
2022-08-09T01:19:04.806Z,17.77
2022-08-09T01:22:28.284Z,17.46
2022-08-09T01:25:42.156Z,17.54
2022-08-09T01:28:56.141Z,17.13
2022-08-09T01:32:31.529Z,16.95
2022-08-09T01:35:44.975Z,17.24
2022-08-09T01:38:49.048Z,16.90
2022-08-09T01:41:55.676Z,16.67
2022-08-09T01:45:05.668Z,17.43
2022-08-09T01:48:09.834Z,17.32
2022-08-09T01:51:13.466Z,17.13
2022-08-09T01:54:32.991Z,16.84
2022-08-09T01:57:45.841Z,16.72
2022-08-09T02:00:50.521Z,16.08
2022-08-09T02:03:56.147Z,16.29
2022-08-09T02:07:08.669Z,16.72
2022-08-09T02:10:30.049Z,17.40
2022-08-09T02:13:37.688Z,17.32
2022-08-09T02:16:53.079Z,17.20
2022-08-09T02:20:02.237Z,17.25
2022-08-09T02:23:42.833Z,17.17
2022-08-09T02:26:46.248Z,16.99
2022-08-09T02:29:52.804Z,17.10
2022-08-09T02:32:56.676Z,16.99
2022-08-09T02:36:04.462Z,16.53
2022-08-09T02:39:14.449Z,16.85
2022-08-09T02:42:27.862Z,16.92
2022-08-09T02:45:34.438Z,16.73
2022-08-09T02:48:39.067Z,17.04
2022-08-09T02:51:54.030Z,17.19
2022-08-09T02:54:58.894Z,16.95
2022-08-09T02:58:35.286Z,16.78
2022-08-09T03:01:57.607Z,17.25
2022-08-09T03:04:55.706Z,16.65
2022-08-09T03:08:00.599Z,16.71
2022-08-09T03:11:04.267Z,15.62
2022-08-09T03:14:06.865Z,16.40
2022-08-09T03:17:08.913Z,16.96
2022-08-09T03:20:22.073Z,16.76
2022-08-09T03:23:25.138Z,16.46
2022-08-09T03:26:31.888Z,16.25
2022-08-09T03:29:35.756Z,16.87
2022-08-09T03:32:59.398Z,16.64
2022-08-09T03:36:12.401Z,16.87
2022-08-09T03:39:15.688Z,16.31
2022-08-09T03:42:19.317Z,16.83
2022-08-09T03:46:13.556Z,16.41
2022-08-09T03:48:55.048Z,15.98
2022-08-09T03:52:00.159Z,16.00
2022-08-09T03:55:09.858Z,16.30
2022-08-09T03:58:17.092Z,16.07
2022-08-09T04:01:24.979Z,15.91
2022-08-09T04:04:36.031Z,16.09
2022-08-09T04:07:52.345Z,15.73
2022-08-09T04:10:55.982Z,15.00
2022-08-09T04:14:53.593Z,14.61
2022-08-09T04:17:24.738Z,15.16
2022-08-09T04:20:27.282Z,15.18
2022-08-09T04:23:30.851Z,15.07
2022-08-09T04:26:37.924Z,15.08
2022-08-09T04:29:39.757Z,14.79
2022-08-09T04:32:52.217Z,14.63
2022-08-09T04:35:55.999Z,14.76
2022-08-09T04:39:03.902Z,15.56
2022-08-09T04:42:05.998Z,15.30
2022-08-09T04:45:11.861Z,13.89
2022-08-09T04:48:14.945Z,14.47
2022-08-09T04:51:16.963Z,14.66
2022-08-09T04:54:21.856Z,14.73
2022-08-09T04:57:24.462Z,14.61
2022-08-09T05:00:31.680Z,15.04
2022-08-09T05:03:43.626Z,15.48
2022-08-09T05:06:45.981Z,15.13
2022-08-09T05:09:52.591Z,14.68
2022-08-09T05:12:54.885Z,14.14
2022-08-09T05:15:57.180Z,14.39
2022-08-09T05:19:00.311Z,14.19
2022-08-09T05:22:02.150Z,14.33
2022-08-09T05:25:05.265Z,14.61
2022-08-09T05:28:06.817Z,14.40
2022-08-09T05:31:09.675Z,14.28
2022-08-09T05:34:16.967Z,14.55
2022-08-09T05:37:19.105Z,15.18
2022-08-09T05:40:20.591Z,15.22
2022-08-09T05:43:23.339Z,14.98
2022-08-09T05:46:24.961Z,14.97
2022-08-09T05:50:23.353Z,15.05
2022-08-09T05:52:52.111Z,15.06
2022-08-09T05:55:55.381Z,15.33
2022-08-09T05:58:58.686Z,15.48
2022-08-09T06:02:00.488Z,15.68
2022-08-09T06:05:03.803Z,15.79
2022-08-09T06:08:08.921Z,15.94
2022-08-09T06:11:17.546Z,16.25
2022-08-09T06:14:19.297Z,16.60
2022-08-09T06:17:20.805Z,16.92
2022-08-09T06:20:22.365Z,17.15
2022-08-09T06:23:58.171Z,17.21
2022-08-09T06:26:47.444Z,17.36
2022-08-09T06:29:58.503Z,17.51
2022-08-09T06:33:30.439Z,17.69
2022-08-09T06:36:29.977Z,17.69
2022-08-09T06:39:57.422Z,17.73
2022-08-09T06:42:53.786Z,17.88
2022-08-09T06:46:06.665Z,17.98
2022-08-09T06:49:11.849Z,18.17
2022-08-09T06:52:15.875Z,18.28
2022-08-09T06:55:23.345Z,18.41
2022-08-09T07:00:52.658Z,18.48
2022-08-09T07:01:54.133Z,18.62
2022-08-09T07:05:00.394Z,18.67
2022-08-09T07:08:02.073Z,18.70
2022-08-09T07:11:06.723Z,18.83
2022-08-09T07:14:08.811Z,18.92
2022-08-09T07:17:10.406Z,18.99
2022-08-09T07:20:14.579Z,19.02
2022-08-09T07:23:19.549Z,19.15
2022-08-09T07:26:21.281Z,19.38
2022-08-09T07:29:24.639Z,19.55
2022-08-09T07:32:33.743Z,19.41
2022-08-09T07:35:39.687Z,19.49
2022-08-09T07:39:00.554Z,19.64
2022-08-09T07:42:04.274Z,19.92
2022-08-09T07:45:23.083Z,20.11
2022-08-09T07:48:30.389Z,20.02
2022-08-09T07:52:05.684Z,20.22
2022-08-09T07:54:54.598Z,20.41
2022-08-09T07:57:57.206Z,20.52
2022-08-09T08:01:06.193Z,20.70
2022-08-09T08:04:12.442Z,20.82
2022-08-09T08:07:42.091Z,21.01
2022-08-09T08:10:37.001Z,21.13
2022-08-09T08:13:42.656Z,21.17
2022-08-09T08:17:07.443Z,21.30
2022-08-09T08:20:12.756Z,21.66
2022-08-09T08:23:17.841Z,21.82
2022-08-09T08:26:26.579Z,21.80
2022-08-09T08:29:48.785Z,21.99
2022-08-09T08:32:54.078Z,22.12
2022-08-09T08:35:59.437Z,22.40
2022-08-09T08:39:02.242Z,22.76
2022-08-09T08:42:04.159Z,22.80
2022-08-09T08:45:13.355Z,22.76
2022-08-09T08:48:19.387Z,22.98
2022-08-09T08:51:22.850Z,23.35
2022-08-09T08:54:29.887Z,23.22
2022-08-09T08:57:35.260Z,23.24
2022-08-09T09:00:38.702Z,23.32
2022-08-09T09:03:41.276Z,23.55
2022-08-09T09:06:44.415Z,23.56
2022-08-09T09:09:59.549Z,23.42
2022-08-09T09:13:09.504Z,23.66
2022-08-09T09:16:12.544Z,23.69
2022-08-09T09:19:40.937Z,23.63
2022-08-09T09:22:56.367Z,23.83
2022-08-09T09:26:04.910Z,24.15
2022-08-09T09:29:17.168Z,24.17
2022-08-09T09:32:35.388Z,24.41
2022-08-09T09:36:01.843Z,24.55
2022-08-09T09:39:10.001Z,24.64
2022-08-09T09:42:24.546Z,24.79
2022-08-09T09:45:29.631Z,24.94
2022-08-09T09:48:32.703Z,25.00
2022-08-09T09:51:38.424Z,25.18
2022-08-09T09:54:48.798Z,25.21
2022-08-09T09:58:19.048Z,25.17
2022-08-09T10:01:30.952Z,25.15
2022-08-09T10:04:40.014Z,25.15
2022-08-09T10:08:11.335Z,24.98
2022-08-09T10:11:53.788Z,25.17
2022-08-09T10:14:48.385Z,25.46
2022-08-09T10:17:56.275Z,25.43
2022-08-09T10:21:09.153Z,25.36
2022-08-09T10:24:15.825Z,25.43
2022-08-09T10:27:24.927Z,25.70
2022-08-09T10:34:10.128Z,26.14
2022-08-09T10:37:14.041Z,26.08
2022-08-09T10:40:33.733Z,25.79
2022-08-09T10:43:46.996Z,26.13
2022-08-09T10:48:16.936Z,26.26
2022-08-09T10:51:09.557Z,25.94
2022-08-09T10:54:13.682Z,26.44
2022-08-09T10:57:15.262Z,26.34
2022-08-09T11:00:28.699Z,26.47
2022-08-09T11:03:50.159Z,26.11
2022-08-09T11:06:57.711Z,26.29
2022-08-09T11:10:01.413Z,26.73
2022-08-09T11:13:49.441Z,26.12
2022-08-09T11:16:39.357Z,26.32
2022-08-09T11:20:10.715Z,26.29
2022-08-09T11:23:24.264Z,26.73
2022-08-09T11:26:52.052Z,26.79
2022-08-09T11:30:05.142Z,26.47
2022-08-09T11:33:19.621Z,26.75
2022-08-09T11:36:30.384Z,26.70
2022-08-09T11:40:03.980Z,26.87
2022-08-09T11:43:05.837Z,26.98
2022-08-09T11:46:07.558Z,27.15
2022-08-09T11:49:09.007Z,26.95
2022-08-09T11:53:02.756Z,26.78
2022-08-09T11:55:52.836Z,27.03
2022-08-09T11:59:00.312Z,27.13
2022-08-09T12:02:18.410Z,27.45
2022-08-09T12:05:39.560Z,27.35
2022-08-09T12:08:52.726Z,27.18
2022-08-09T12:12:03.005Z,27.37
2022-08-09T12:15:50.186Z,27.07
2022-08-09T12:18:54.125Z,27.72
2022-08-09T12:22:00.814Z,27.78
2022-08-09T12:25:15.397Z,27.88
2022-08-09T12:29:11.582Z,27.47
2022-08-09T12:31:58.477Z,27.57
2022-08-09T12:35:05.067Z,27.70
2022-08-09T12:38:31.916Z,28.27
2022-08-09T12:41:40.521Z,28.09
2022-08-09T12:44:42.770Z,28.20
2022-08-09T12:47:54.229Z,28.05
2022-08-09T12:50:56.858Z,27.73
2022-08-09T12:54:01.733Z,27.58
2022-08-09T12:57:03.357Z,27.67
2022-08-09T13:00:17.100Z,27.68
2022-08-09T13:03:53.898Z,28.27
2022-08-09T13:06:49.426Z,28.71
2022-08-09T13:10:02.025Z,28.24
2022-08-09T13:13:11.245Z,27.81
2022-08-09T13:16:15.767Z,27.82
2022-08-09T13:20:08.355Z,28.29
2022-08-09T13:24:07.392Z,28.19
2022-08-09T13:26:37.294Z,27.97
2022-08-09T13:30:02.899Z,28.37
2022-08-09T13:33:00.483Z,28.26
2022-08-09T13:36:38.222Z,28.22
2022-08-09T13:41:55.515Z,27.76
2022-08-09T13:42:46.672Z,27.73
2022-08-09T13:46:43.749Z,27.81
2022-08-09T13:49:18.312Z,27.76
2022-08-09T13:52:20.599Z,27.84
2022-08-09T13:55:22.084Z,27.94
2022-08-09T13:58:24.074Z,27.92
2022-08-09T14:01:56.579Z,27.89
2022-08-09T14:04:49.405Z,28.43
2022-08-09T14:08:05.898Z,28.20
2022-08-09T14:11:09.949Z,27.94
2022-08-09T14:14:27.084Z,27.91
2022-08-09T14:17:32.677Z,27.99
2022-08-09T14:20:50.574Z,28.14
2022-08-09T14:23:56.684Z,28.17
2022-08-09T14:27:01.160Z,28.37
2022-08-09T14:30:35.739Z,28.11
2022-08-09T14:33:24.477Z,28.30
2022-08-09T14:36:27.965Z,28.34
2022-08-09T14:39:46.684Z,28.50
2022-08-09T14:42:49.745Z,28.53
2022-08-09T14:46:56.149Z,28.60
2022-08-09T14:49:13.798Z,28.72
2022-08-09T14:52:17.759Z,28.81
2022-08-09T14:55:20.217Z,28.98
2022-08-09T14:58:22.524Z,29.02
2022-08-09T15:01:24.842Z,28.96
2022-08-09T15:04:27.376Z,28.83
2022-08-09T15:07:28.812Z,28.72
2022-08-09T15:10:34.800Z,28.56
2022-08-09T15:13:48.700Z,28.98
2022-08-09T15:16:57.715Z,29.10
2022-08-09T15:20:02.432Z,29.16
2022-08-09T15:24:01.045Z,29.22
2022-08-09T15:26:31.196Z,29.43
2022-08-09T15:30:56.374Z,29.20
2022-08-09T15:32:55.200Z,29.41
2022-08-09T15:36:02.271Z,29.56
2022-08-09T15:39:07.214Z,29.82
2022-08-09T15:42:08.680Z,29.65
2022-08-09T15:45:15.083Z,29.59
2022-08-09T15:48:29.106Z,29.90
2022-08-09T15:52:03.579Z,29.66
2022-08-09T15:54:54.271Z,30.16
2022-08-09T15:57:56.385Z,29.55
2022-08-09T16:01:03.395Z,29.56
2022-08-09T16:04:04.975Z,29.84
2022-08-09T16:07:06.622Z,29.79
2022-08-09T16:10:38.470Z,30.32
2022-08-09T16:14:02.782Z,30.21
2022-08-09T16:16:56.266Z,29.98
2022-08-09T16:20:03.848Z,29.82
2022-08-09T16:23:06.367Z,29.93
2022-08-09T16:26:07.862Z,30.05
2022-08-09T16:29:21.489Z,30.38
2022-08-09T16:32:58.352Z,30.52
2022-08-09T16:36:03.373Z,29.83
2022-08-09T16:39:10.686Z,30.02
2022-08-09T16:42:14.754Z,30.25
2022-08-09T16:45:19.684Z,30.01
2022-08-09T16:48:39.214Z,30.37
2022-08-09T16:51:44.687Z,29.95
2022-08-09T16:54:56.918Z,29.69
2022-08-09T16:58:08.529Z,29.62
2022-08-09T17:01:11.305Z,29.73
2022-08-09T17:04:13.804Z,29.85
2022-08-09T17:08:44.907Z,28.66
2022-08-09T17:10:51.895Z,28.43
2022-08-09T17:14:01.090Z,28.37
2022-08-09T17:17:13.009Z,28.19
2022-08-09T17:20:33.111Z,28.09
2022-08-09T17:24:27.204Z,27.89
2022-08-09T17:27:00.456Z,27.67
2022-08-09T17:30:06.618Z,27.73
2022-08-09T17:33:22.663Z,27.59
2022-08-09T17:36:24.719Z,27.28
2022-08-09T17:39:27.498Z,27.18
2022-08-09T17:42:49.227Z,27.07
2022-08-09T17:46:03.800Z,26.92
2022-08-09T17:49:06.570Z,26.84
2022-08-09T17:52:22.338Z,26.79
2022-08-09T17:55:24.152Z,26.65
2022-08-09T17:58:45.627Z,26.48
2022-08-09T18:02:07.348Z,26.35
2022-08-09T18:05:13.088Z,26.28
2022-08-09T18:08:14.788Z,26.23
2022-08-09T18:11:23.789Z,26.13
2022-08-09T18:14:26.291Z,26.04
2022-08-09T18:18:03.805Z,25.93
2022-08-09T18:24:33.130Z,25.76
2022-08-09T18:28:05.262Z,25.58
2022-08-09T18:30:59.973Z,25.43
2022-08-09T18:34:01.446Z,25.28
2022-08-09T18:41:03.815Z,24.96
2022-08-09T18:44:13.713Z,24.85
2022-08-09T18:47:18.483Z,24.78
2022-08-09T18:50:22.201Z,24.73
2022-08-09T18:53:28.046Z,24.64
2022-08-09T18:57:05.231Z,24.60
2022-08-09T19:00:20.608Z,24.51
2022-08-09T19:03:24.423Z,24.39
2022-08-09T19:06:27.975Z,24.30
2022-08-09T19:10:13.221Z,24.17
2022-08-09T19:13:00.223Z,24.00
2022-08-09T19:16:13.649Z,23.87
2022-08-09T19:19:26.067Z,23.82
2022-08-09T19:22:29.709Z,23.62
2022-08-09T19:26:04.553Z,23.45
2022-08-09T19:29:18.294Z,23.35
2022-08-09T19:32:26.621Z,23.13
2022-08-09T19:35:57.544Z,23.13
2022-08-09T19:38:52.748Z,23.17
2022-08-09T19:41:54.802Z,23.23
2022-08-09T19:44:56.333Z,23.20
2022-08-09T19:47:58.714Z,23.18
2022-08-09T19:51:01.157Z,23.12
2022-08-09T19:54:03.306Z,23.01
2022-08-09T19:57:08.654Z,22.92
2022-08-09T20:00:11.563Z,22.76
2022-08-09T20:04:23.813Z,22.76
2022-08-09T20:06:37.298Z,22.74
2022-08-09T20:09:45.096Z,22.65
2022-08-09T20:12:47.475Z,22.57
2022-08-09T20:16:34.770Z,22.48
2022-08-09T20:19:49.654Z,22.41
2022-08-09T20:22:44.532Z,22.23
2022-08-09T20:25:53.524Z,22.30
2022-08-09T20:28:55.472Z,22.04
2022-08-09T20:32:29.161Z,22.03
2022-08-09T20:35:21.728Z,22.00
2022-08-09T20:38:30.906Z,21.98
2022-08-09T20:41:48.880Z,21.92
2022-08-09T20:45:04.632Z,21.90
2022-08-09T20:48:12.175Z,21.82
2022-08-09T20:51:24.538Z,21.54
2022-08-09T20:54:26.537Z,21.48
2022-08-09T20:57:32.077Z,21.20
2022-08-09T21:00:34.979Z,21.00
2022-08-09T21:03:39.384Z,21.02
2022-08-09T21:06:58.099Z,21.25
2022-08-09T21:09:59.902Z,21.07
2022-08-09T21:13:01.415Z,21.02
2022-08-09T21:16:04.118Z,21.03
2022-08-09T21:20:19.174Z,21.25
2022-08-09T21:22:46.612Z,20.98
2022-08-09T21:25:55.907Z,20.77
2022-08-09T21:29:01.105Z,20.86
2022-08-09T21:32:02.870Z,20.97
2022-08-09T21:35:08.925Z,20.75
2022-08-09T21:38:10.710Z,20.61
2022-08-09T21:41:17.171Z,20.45
2022-08-09T21:44:33.037Z,20.45
2022-08-09T21:47:37.175Z,20.29
2022-08-09T21:50:46.637Z,20.24
2022-08-09T21:53:53.765Z,20.21
2022-08-09T21:56:55.228Z,20.34
2022-08-09T21:59:56.970Z,20.51
2022-08-09T22:03:02.380Z,20.62
2022-08-09T22:06:06.673Z,20.64
